createdAt,value
2019-04-27T00:02:09.510Z,10.52
2019-04-27T00:04:57.410Z,10.33
2019-04-27T00:08:02.954Z,10.33
2019-04-27T00:10:39.695Z,10.52
2019-04-27T00:13:08.538Z,10.32
2019-04-27T00:15:56.877Z,10.23
2019-04-27T00:18:39.318Z,10.50
2019-04-27T00:21:23.694Z,10.35
2019-04-27T00:23:53.289Z,10.41
2019-04-27T00:26:23.303Z,10.50
2019-04-27T00:28:53.773Z,10.34
2019-04-27T00:31:23.574Z,10.37
2019-04-27T00:33:53.658Z,10.57
2019-04-27T00:36:30.161Z,10.57
2019-04-27T00:39:14.997Z,10.36
2019-04-27T00:41:44.417Z,10.23
2019-04-27T00:44:13.788Z,10.54
2019-04-27T00:46:47.402Z,10.66
2019-04-27T00:49:16.823Z,10.57
2019-04-27T00:51:46.790Z,10.65
2019-04-27T00:54:16.180Z,10.78
2019-04-27T00:56:54.744Z,10.63
2019-04-27T00:59:49.499Z,10.62
2019-04-27T01:02:26.142Z,10.67
2019-04-27T01:04:54.941Z,10.67
2019-04-27T01:07:24.971Z,10.76
2019-04-27T01:09:54.074Z,10.90
2019-04-27T01:12:23.733Z,10.87
2019-04-27T01:14:53.474Z,10.55
2019-04-27T01:17:23.573Z,10.08
2019-04-27T01:19:52.466Z,10.08
2019-04-27T01:22:21.580Z,9.84
2019-04-27T01:24:50.577Z,9.65
2019-04-27T01:27:26.113Z,9.81
2019-04-27T01:29:55.308Z,9.81
2019-04-27T01:32:24.083Z,9.88
2019-04-27T01:34:52.976Z,9.70
2019-04-27T01:37:24.011Z,9.81
2019-04-27T01:39:53.402Z,9.50
2019-04-27T01:42:23.126Z,9.48
2019-04-27T01:44:51.981Z,9.41
2019-04-27T01:47:21.932Z,9.25
2019-04-27T01:49:50.915Z,9.14
2019-04-27T01:52:20.559Z,9.40
2019-04-27T01:54:50.038Z,9.53
2019-04-27T01:57:19.503Z,9.40
2019-04-27T01:59:48.945Z,9.56
2019-04-27T02:02:29.410Z,9.57
2019-04-27T02:05:19.017Z,9.47
2019-04-27T02:07:49.139Z,9.26
2019-04-27T02:10:19.251Z,9.66
2019-04-27T02:12:48.739Z,9.60
2019-04-27T02:15:19.140Z,9.40
2019-04-27T02:17:48.962Z,9.25
2019-04-27T02:20:19.829Z,9.59
2019-04-27T02:22:50.756Z,9.58
2019-04-27T02:25:21.102Z,9.70
2019-04-27T02:27:55.586Z,9.56
2019-04-27T02:30:43.118Z,9.60
2019-04-27T02:33:40.586Z,9.48
2019-04-27T02:36:14.854Z,9.32
2019-04-27T02:38:40.661Z,9.32
2019-04-27T02:41:10.202Z,9.35
2019-04-27T02:43:53.524Z,9.14
2019-04-27T02:46:22.075Z,8.99
2019-04-27T02:48:59.636Z,9.16
2019-04-27T02:51:49.567Z,8.89
2019-04-27T02:54:20.475Z,8.73
2019-04-27T02:56:50.000Z,8.07
2019-04-27T02:59:21.149Z,8.07
2019-04-27T03:02:04.891Z,8.06
2019-04-27T03:04:40.575Z,8.19
2019-04-27T03:07:11.485Z,8.17
2019-04-27T03:09:40.259Z,8.19
2019-04-27T03:12:10.208Z,8.19
2019-04-27T03:15:04.905Z,8.22
2019-04-27T03:18:02.957Z,8.28
2019-04-27T03:20:54.025Z,7.91
2019-04-27T03:23:23.723Z,7.68
2019-04-27T03:26:03.570Z,7.41
2019-04-27T03:30:36.139Z,7.28
2019-04-27T03:33:03.905Z,7.22
2019-04-27T03:35:36.410Z,7.02
2019-04-27T03:38:04.980Z,7.05
2019-04-27T03:40:34.539Z,7.05
2019-04-27T03:43:11.801Z,6.95
2019-04-27T03:45:41.487Z,7.06
2019-04-27T03:48:10.579Z,7.19
2019-04-27T03:53:29.808Z,7.28
2019-04-27T03:56:14.601Z,7.21
2019-04-27T03:58:49.486Z,6.73
2019-04-27T04:01:20.315Z,6.88
2019-04-27T04:03:50.275Z,6.76
2019-04-27T04:06:19.804Z,6.93
2019-04-27T04:08:54.919Z,6.85
2019-04-27T04:11:30.297Z,7.07
2019-04-27T04:14:03.325Z,7.07
2019-04-27T04:17:02.279Z,7.39
2019-04-27T04:19:47.480Z,7.43
2019-04-27T04:22:01.855Z,7.43
2019-04-27T04:24:31.784Z,7.27
2019-04-27T04:27:00.941Z,7.15
2019-04-27T04:29:30.786Z,7.19
2019-04-27T04:32:00.640Z,7.21
2019-04-27T04:34:30.146Z,7.27
2019-04-27T04:37:00.603Z,7.49
2019-04-27T04:39:30.706Z,7.38
2019-04-27T04:42:30.982Z,7.46
2019-04-27T04:45:10.762Z,7.58
2019-04-27T04:47:59.792Z,7.78
2019-04-27T04:50:30.450Z,7.96
2019-04-27T04:53:00.003Z,8.21
2019-04-27T04:55:30.691Z,9.56
2019-04-27T04:58:00.091Z,9.56
2019-04-27T05:00:29.858Z,11.37
2019-04-27T05:02:59.607Z,13.67
2019-04-27T05:09:41.460Z,16.42
2019-04-27T05:12:10.466Z,17.62
2019-04-27T05:14:40.548Z,17.90
2019-04-27T05:19:54.947Z,21.99
2019-04-27T05:22:23.965Z,23.01
2019-04-27T05:25:02.443Z,22.95
2019-04-27T05:27:31.985Z,22.58
2019-04-27T05:30:01.566Z,24.14
2019-04-27T05:32:29.989Z,25.23
2019-04-27T05:34:59.639Z,25.23
2019-04-27T05:37:31.622Z,23.73
2019-04-27T05:40:01.505Z,22.50
2019-04-27T05:42:30.515Z,23.00
2019-04-27T05:45:22.710Z,26.17
2019-04-27T05:47:58.973Z,26.17
2019-04-27T05:50:36.434Z,28.90
2019-04-27T05:52:59.969Z,28.90
2019-04-27T05:55:29.233Z,29.31
2019-04-27T05:57:59.162Z,28.15
2019-04-27T06:00:29.314Z,26.55
2019-04-27T06:02:59.044Z,25.30
2019-04-27T06:05:29.280Z,25.40
2019-04-27T06:07:58.909Z,24.74
2019-04-27T06:10:29.562Z,22.68
2019-04-27T06:12:59.892Z,23.21
2019-04-27T06:15:33.782Z,23.48
2019-04-27T06:18:02.880Z,25.17
2019-04-27T06:20:33.531Z,27.06
2019-04-27T06:23:02.731Z,27.22
2019-04-27T06:25:33.264Z,27.22
2019-04-27T06:28:33.141Z,29.41
2019-04-27T06:31:30.145Z,31.54
2019-04-27T06:33:59.758Z,32.64
2019-04-27T06:36:29.043Z,34.19
2019-04-27T06:38:58.976Z,35.33
2019-04-27T06:41:29.506Z,32.86
2019-04-27T06:43:59.339Z,31.56
2019-04-27T06:46:28.960Z,29.91
2019-04-27T06:48:59.284Z,27.24
2019-04-27T06:51:28.803Z,26.49
2019-04-27T06:53:59.477Z,28.40
2019-04-27T06:56:28.829Z,29.41
2019-04-27T06:58:59.602Z,29.41
2019-04-27T07:01:29.986Z,31.40
2019-04-27T07:03:59.804Z,31.73
2019-04-27T07:06:28.974Z,30.98
2019-04-27T07:10:28.607Z,30.39
2019-04-27T07:12:57.003Z,28.64
2019-04-27T07:15:25.918Z,27.88
2019-04-27T07:17:55.065Z,27.52
2019-04-27T07:20:24.139Z,27.72
2019-04-27T07:22:53.524Z,27.18
2019-04-27T07:25:22.601Z,27.24
2019-04-27T07:27:51.559Z,27.04
2019-04-27T07:30:21.016Z,28.11
2019-04-27T07:32:49.936Z,28.11
2019-04-27T07:35:19.895Z,28.77
2019-04-27T07:37:58.981Z,27.89
2019-04-27T07:40:30.426Z,27.64
2019-04-27T07:43:06.067Z,27.00
2019-04-27T07:45:37.045Z,27.04
2019-04-27T07:48:08.958Z,27.25
2019-04-27T07:50:39.056Z,26.54
2019-04-27T07:53:08.622Z,26.41
2019-04-27T07:55:39.451Z,26.45
2019-04-27T07:58:08.952Z,26.91
2019-04-27T08:00:39.526Z,26.91
2019-04-27T08:03:09.987Z,25.77
2019-04-27T08:05:39.193Z,25.16
2019-04-27T08:08:08.962Z,25.45
2019-04-27T08:10:39.678Z,25.02
2019-04-27T08:13:11.290Z,24.95
2019-04-27T08:15:40.608Z,24.39
2019-04-27T08:18:09.805Z,23.48
2019-04-27T08:20:39.942Z,23.48
2019-04-27T08:23:09.659Z,24.18
2019-04-27T08:25:39.258Z,23.96
2019-04-27T08:28:43.073Z,23.19
2019-04-27T08:32:19.617Z,22.59
2019-04-27T08:34:49.424Z,23.64
2019-04-27T08:37:18.788Z,23.76
2019-04-27T08:39:49.429Z,23.76
2019-04-27T08:42:21.295Z,23.48
2019-04-27T08:44:50.405Z,24.84
2019-04-27T08:47:19.494Z,24.59
2019-04-27T08:49:49.255Z,25.37
2019-04-27T08:52:19.404Z,24.26
2019-04-27T08:54:49.357Z,23.69
2019-04-27T08:57:19.899Z,24.48
2019-04-27T08:59:51.438Z,24.62
2019-04-27T09:02:23.443Z,23.75
2019-04-27T09:04:52.724Z,22.95
2019-04-27T09:07:42.106Z,21.78
2019-04-27T09:10:22.163Z,21.27
2019-04-27T09:13:03.940Z,20.32
2019-04-27T09:16:00.046Z,20.09
2019-04-27T09:18:32.590Z,19.65
2019-04-27T09:21:03.377Z,18.67
2019-04-27T09:23:32.471Z,18.67
2019-04-27T09:26:01.585Z,18.60
2019-04-27T09:28:30.582Z,18.05
2019-04-27T09:30:59.971Z,17.59
2019-04-27T09:33:29.388Z,17.59
2019-04-27T09:35:59.795Z,18.08
2019-04-27T09:38:31.308Z,18.67
2019-04-27T09:41:00.549Z,18.57
2019-04-27T09:43:29.565Z,18.88
2019-04-27T09:45:58.983Z,18.60
2019-04-27T09:48:30.701Z,18.61
2019-04-27T09:50:59.813Z,19.01
2019-04-27T09:53:29.466Z,19.16
2019-04-27T09:55:58.594Z,19.07
2019-04-27T09:59:30.819Z,18.81
2019-04-27T10:01:59.971Z,18.70
2019-04-27T10:04:35.593Z,18.55
2019-04-27T10:07:23.673Z,17.86
2019-04-27T10:10:01.873Z,18.01
2019-04-27T10:12:34.248Z,18.85
2019-04-27T10:15:06.994Z,19.17
2019-04-27T10:17:36.931Z,18.69
2019-04-27T10:20:06.609Z,18.82
2019-04-27T10:22:43.811Z,21.38
2019-04-27T10:25:26.867Z,21.38
2019-04-27T10:27:59.828Z,21.81
2019-04-27T10:30:30.680Z,21.86
2019-04-27T10:33:00.063Z,21.53
2019-04-27T10:35:28.962Z,20.79
2019-04-27T10:37:58.486Z,20.71
2019-04-27T10:40:33.761Z,21.78
2019-04-27T10:43:03.525Z,21.78
2019-04-27T10:45:33.558Z,21.04
2019-04-27T10:48:03.548Z,19.99
2019-04-27T10:50:33.050Z,20.15
2019-04-27T10:53:02.395Z,20.08
2019-04-27T10:55:31.596Z,19.85
2019-04-27T10:58:00.469Z,19.56
2019-04-27T11:00:38.159Z,19.19
2019-04-27T11:03:07.475Z,19.19
2019-04-27T11:05:56.952Z,18.43
2019-04-27T11:08:26.609Z,18.43
2019-04-27T11:10:56.432Z,18.27
2019-04-27T11:13:25.867Z,18.42
2019-04-27T11:15:54.997Z,18.13
2019-04-27T11:18:25.683Z,18.50
2019-04-27T11:20:56.705Z,18.01
2019-04-27T11:23:26.165Z,17.58
2019-04-27T11:25:55.830Z,17.73
2019-04-27T11:28:26.189Z,17.50
2019-04-27T11:30:56.019Z,17.42
2019-04-27T11:33:26.342Z,17.12
2019-04-27T11:36:27.448Z,16.85
2019-04-27T11:38:59.894Z,16.76
2019-04-27T11:41:29.701Z,17.32
2019-04-27T11:43:59.305Z,17.35
2019-04-27T11:46:31.075Z,17.75
2019-04-27T11:49:00.125Z,17.27
2019-04-27T11:51:36.695Z,17.48
2019-04-27T11:54:06.141Z,17.79
2019-04-27T11:56:36.229Z,17.57
2019-04-27T11:59:07.090Z,18.27
2019-04-27T12:01:36.456Z,18.16
2019-04-27T12:04:05.922Z,17.92
2019-04-27T12:06:35.958Z,17.87
2019-04-27T12:09:06.735Z,18.11
2019-04-27T12:11:37.014Z,18.39
2019-04-27T12:14:08.594Z,18.74
2019-04-27T12:19:22.500Z,20.42
2019-04-27T12:21:51.852Z,21.02
2019-04-27T12:24:21.766Z,21.02
2019-04-27T12:27:05.754Z,20.34
2019-04-27T12:29:53.621Z,19.68
2019-04-27T12:32:23.116Z,20.09
2019-04-27T12:34:51.924Z,20.62
2019-04-27T12:37:23.312Z,20.62
2019-04-27T12:39:52.958Z,20.87
2019-04-27T12:42:23.478Z,20.21
2019-04-27T12:44:52.646Z,18.50
2019-04-27T12:47:22.005Z,18.50
2019-04-27T12:49:51.549Z,18.12
2019-04-27T12:52:31.296Z,18.74
2019-04-27T12:55:12.715Z,19.24
2019-04-27T12:57:55.524Z,21.58
2019-04-27T13:00:33.642Z,21.69
2019-04-27T13:03:02.724Z,21.10
2019-04-27T13:05:32.194Z,21.10
2019-04-27T13:08:01.102Z,21.52
2019-04-27T13:10:30.849Z,20.85
2019-04-27T13:12:59.998Z,21.07
2019-04-27T13:15:28.938Z,19.72
2019-04-27T13:17:59.504Z,19.56
2019-04-27T13:20:29.257Z,19.73
2019-04-27T13:23:01.648Z,20.58
2019-04-27T13:25:29.353Z,20.32
2019-04-27T13:27:58.694Z,19.89
2019-04-27T13:30:30.582Z,19.60
2019-04-27T13:32:58.858Z,20.07
2019-04-27T13:35:27.712Z,20.79
2019-04-27T13:37:56.108Z,21.97
2019-04-27T13:40:25.997Z,21.46
2019-04-27T13:43:13.937Z,22.36
2019-04-27T13:46:17.438Z,22.63
2019-04-27T13:49:04.980Z,21.99
2019-04-27T13:51:52.689Z,21.65
2019-04-27T13:54:25.977Z,20.84
2019-04-27T13:56:53.146Z,19.38
2019-04-27T13:59:22.303Z,19.26
2019-04-27T14:01:51.512Z,19.00
2019-04-27T14:04:21.284Z,19.25
2019-04-27T14:06:50.961Z,19.42
2019-04-27T14:09:20.435Z,19.27
2019-04-27T14:11:51.918Z,18.84
2019-04-27T14:14:22.304Z,18.39
2019-04-27T14:16:51.436Z,18.48
2019-04-27T14:19:20.501Z,18.79
2019-04-27T14:21:50.537Z,18.06
2019-04-27T14:24:27.841Z,18.06
2019-04-27T14:26:50.003Z,18.10
2019-04-27T14:29:20.098Z,17.95
2019-04-27T14:31:53.705Z,18.12
2019-04-27T14:34:23.334Z,17.40
2019-04-27T14:36:52.406Z,17.35
2019-04-27T14:39:38.866Z,17.43
2019-04-27T14:42:08.430Z,17.64
2019-04-27T14:44:41.319Z,17.31
2019-04-27T14:47:13.842Z,17.53
2019-04-27T14:49:43.610Z,17.41
2019-04-27T14:52:14.508Z,17.48
2019-04-27T14:54:48.094Z,17.55
2019-04-27T14:57:26.103Z,17.58
2019-04-27T14:59:56.551Z,16.78
2019-04-27T15:02:25.509Z,15.27
2019-04-27T15:04:54.541Z,13.97
2019-04-27T15:08:09.924Z,13.65
2019-04-27T15:10:46.421Z,13.07
2019-04-27T15:13:18.840Z,13.07
2019-04-27T15:15:53.291Z,13.16
2019-04-27T15:18:29.638Z,12.53
2019-04-27T15:21:02.690Z,12.25
2019-04-27T15:23:31.948Z,11.97
2019-04-27T15:26:01.518Z,11.96
2019-04-27T15:28:33.500Z,12.28
2019-04-27T15:31:26.697Z,12.28
2019-04-27T15:34:04.862Z,12.23
2019-04-27T15:36:56.796Z,12.25
2019-04-27T15:39:48.574Z,12.12
2019-04-27T15:42:28.283Z,11.98
2019-04-27T15:44:59.635Z,12.46
2019-04-27T15:47:28.814Z,12.30
2019-04-27T15:49:58.966Z,12.30
2019-04-27T15:52:30.130Z,12.92
2019-04-27T15:55:02.891Z,13.17
2019-04-27T15:57:34.919Z,13.87
2019-04-27T16:00:11.351Z,14.10
2019-04-27T16:02:39.821Z,14.40
2019-04-27T16:05:10.047Z,14.08
2019-04-27T16:07:39.567Z,13.69
2019-04-27T16:10:09.109Z,13.41
2019-04-27T16:12:47.494Z,12.87
2019-04-27T16:15:13.424Z,12.76
2019-04-27T16:17:43.946Z,12.77
2019-04-27T16:20:22.521Z,13.02
2019-04-27T16:22:48.768Z,13.19
2019-04-27T16:25:18.688Z,13.36
2019-04-27T16:27:49.013Z,13.12
2019-04-27T16:30:20.591Z,13.65
2019-04-27T16:32:51.563Z,13.72
2019-04-27T16:35:22.959Z,14.24
2019-04-27T16:38:15.642Z,14.24
2019-04-27T16:40:45.005Z,14.68
2019-04-27T16:43:14.007Z,15.13
2019-04-27T16:45:43.098Z,14.53
2019-04-27T16:48:13.298Z,14.33
2019-04-27T16:50:42.451Z,14.22
2019-04-27T16:53:13.609Z,14.31
2019-04-27T16:55:42.117Z,14.27
2019-04-27T16:58:15.981Z,14.15
2019-04-27T17:00:43.085Z,14.17
2019-04-27T17:03:12.302Z,14.22
2019-04-27T17:05:43.537Z,13.96
2019-04-27T17:08:21.578Z,13.83
2019-04-27T17:10:45.290Z,13.51
2019-04-27T17:13:15.438Z,13.38
2019-04-27T17:16:08.519Z,13.80
2019-04-27T17:18:49.071Z,13.38
2019-04-27T17:21:23.377Z,13.51
2019-04-27T17:23:52.484Z,13.24
2019-04-27T17:26:24.120Z,13.30
2019-04-27T17:29:16.260Z,13.61
2019-04-27T17:31:50.591Z,13.57
2019-04-27T17:34:25.230Z,13.20
2019-04-27T17:36:54.878Z,13.05
2019-04-27T17:39:24.831Z,12.84
2019-04-27T17:41:54.420Z,12.84
2019-04-27T17:44:23.830Z,13.00
2019-04-27T17:46:53.103Z,12.86
2019-04-27T17:49:23.026Z,13.02
2019-04-27T17:51:53.890Z,12.82
2019-04-27T17:54:23.534Z,13.11
2019-04-27T17:56:54.121Z,12.74
2019-04-27T17:59:23.762Z,12.74
2019-04-27T18:01:54.007Z,12.90
2019-04-27T18:04:25.793Z,12.63
2019-04-27T18:06:58.156Z,12.65
2019-04-27T18:09:26.509Z,12.23
2019-04-27T18:11:56.179Z,10.89
2019-04-27T18:14:32.582Z,10.89
2019-04-27T18:17:03.647Z,10.79
2019-04-27T18:19:40.231Z,10.82
2019-04-27T18:22:10.613Z,10.71
2019-04-27T18:24:45.927Z,10.67
2019-04-27T18:27:33.563Z,10.43
2019-04-27T18:30:20.447Z,10.36
2019-04-27T18:32:51.014Z,10.27
2019-04-27T18:35:26.374Z,10.45
2019-04-27T18:37:53.660Z,10.16
2019-04-27T18:40:31.884Z,9.97
2019-04-27T18:42:56.027Z,10.12
2019-04-27T18:45:26.225Z,10.20
2019-04-27T18:48:06.619Z,9.79
2019-04-27T18:50:52.256Z,9.60
2019-04-27T18:53:25.316Z,9.60
2019-04-27T18:55:59.408Z,9.07
2019-04-27T18:58:29.957Z,8.58
2019-04-27T19:01:00.034Z,8.58
2019-04-27T19:03:31.732Z,8.80
2019-04-27T19:06:01.709Z,9.04
2019-04-27T19:08:31.686Z,9.12
2019-04-27T19:11:04.943Z,9.61
2019-04-27T19:13:35.094Z,9.80
2019-04-27T19:16:05.522Z,9.73
2019-04-27T19:18:34.555Z,9.70
2019-04-27T19:21:04.699Z,9.19
2019-04-27T19:23:34.641Z,9.19
2019-04-27T19:26:18.628Z,9.39
2019-04-27T19:29:04.805Z,9.45
2019-04-27T19:31:38.281Z,9.43
2019-04-27T19:34:08.805Z,9.52
2019-04-27T19:36:39.149Z,9.52
2019-04-27T19:39:13.977Z,9.68
2019-04-27T19:41:57.964Z,9.51
2019-04-27T19:44:22.658Z,8.95
2019-04-27T19:46:53.614Z,8.77
2019-04-27T19:49:25.162Z,8.44
2019-04-27T19:51:58.803Z,8.33
2019-04-27T19:54:30.221Z,8.33
2019-04-27T19:57:00.427Z,7.83
2019-04-27T19:59:38.083Z,7.86
2019-04-27T20:02:12.978Z,7.86
2019-04-27T20:04:50.479Z,8.04
2019-04-27T20:07:20.580Z,8.12
2019-04-27T20:09:58.322Z,7.79
2019-04-27T20:13:36.544Z,8.00
2019-04-27T20:16:06.623Z,8.08
2019-04-27T20:18:36.567Z,8.08
2019-04-27T20:21:06.007Z,8.36
2019-04-27T20:23:35.640Z,8.17
2019-04-27T20:26:04.956Z,8.06
2019-04-27T20:28:34.560Z,8.06
2019-04-27T20:31:04.299Z,8.24
2019-04-27T20:33:44.555Z,8.24
2019-04-27T20:36:11.216Z,8.26
2019-04-27T20:38:41.849Z,8.16
2019-04-27T20:41:12.307Z,8.29
2019-04-27T20:43:42.082Z,7.99
2019-04-27T20:46:11.920Z,8.00
2019-04-27T20:48:42.106Z,8.17
2019-04-27T20:51:11.808Z,8.54
2019-04-27T20:53:46.850Z,8.41
2019-04-27T20:56:16.243Z,8.35
2019-04-27T20:58:45.591Z,8.31
2019-04-27T21:01:17.484Z,8.36
2019-04-27T21:03:53.439Z,8.36
2019-04-27T21:06:34.343Z,8.08
2019-04-27T21:09:13.997Z,8.33
2019-04-27T21:11:46.587Z,8.37
2019-04-27T21:14:17.626Z,8.05
2019-04-27T21:16:47.329Z,7.96
2019-04-27T21:19:17.149Z,8.00
2019-04-27T21:21:47.515Z,8.03
2019-04-27T21:24:17.036Z,7.93
2019-04-27T21:26:47.588Z,7.97
2019-04-27T21:29:21.865Z,7.89
2019-04-27T21:31:52.762Z,7.91
2019-04-27T21:34:23.893Z,7.70
2019-04-27T21:36:54.770Z,7.87
2019-04-27T21:39:25.040Z,8.39
2019-04-27T21:41:55.272Z,7.91
2019-04-27T21:44:25.155Z,8.09
2019-04-27T21:46:55.611Z,8.42
2019-04-27T21:49:24.756Z,8.15
2019-04-27T21:52:02.890Z,8.15
2019-04-27T21:54:34.891Z,8.22
2019-04-27T21:57:04.485Z,8.09
2019-04-27T21:59:33.867Z,7.84
2019-04-27T22:02:04.804Z,7.84
2019-04-27T22:04:34.308Z,7.86
2019-04-27T22:07:03.609Z,7.60
2019-04-27T22:09:32.048Z,7.66
2019-04-27T22:12:02.500Z,7.76
2019-04-27T22:14:31.777Z,7.84
2019-04-27T22:17:01.115Z,7.84
2019-04-27T22:19:31.055Z,7.48
2019-04-27T22:22:02.703Z,7.37
2019-04-27T22:24:36.736Z,7.21
2019-04-27T22:27:05.409Z,7.20
2019-04-27T22:29:34.493Z,7.48
2019-04-27T22:32:04.103Z,7.64
2019-04-27T22:34:33.154Z,7.51
2019-04-27T22:37:02.735Z,7.36
2019-04-27T22:39:48.149Z,7.04
2019-04-27T22:42:45.968Z,7.25
2019-04-27T22:45:19.725Z,7.23
2019-04-27T22:47:48.758Z,7.03
2019-04-27T22:50:17.872Z,7.22
2019-04-27T22:52:50.082Z,7.16
2019-04-27T22:55:19.325Z,7.15
2019-04-27T22:57:53.873Z,6.96
2019-04-27T23:00:48.555Z,6.90
2019-04-27T23:03:23.939Z,6.72
2019-04-27T23:05:54.522Z,6.87
2019-04-27T23:08:24.614Z,6.76
2019-04-27T23:10:55.309Z,7.21
2019-04-27T23:13:25.768Z,7.21
2019-04-27T23:15:56.993Z,7.08
2019-04-27T23:18:26.478Z,6.84
2019-04-27T23:20:56.482Z,6.79
2019-04-27T23:23:26.356Z,6.52
2019-04-27T23:25:56.854Z,6.90
2019-04-27T23:28:26.596Z,6.40
2019-04-27T23:31:02.886Z,6.68
2019-04-27T23:33:32.025Z,6.68
2019-04-27T23:36:01.546Z,6.44
2019-04-27T23:38:30.952Z,6.31
2019-04-27T23:41:01.834Z,5.84
2019-04-27T23:43:31.055Z,5.49
2019-04-27T23:46:01.604Z,5.63
2019-04-27T23:48:32.164Z,5.94
2019-04-27T23:51:14.524Z,6.03
2019-04-27T23:53:44.128Z,6.23
2019-04-27T23:56:13.426Z,6.16
2019-04-27T23:58:42.686Z,6.29
